sensor_id;sensor_type;location;lat;lon;timestamp;pressure;altitude;pressure_sealevel;temperature;humidity
17635;BME280;8936;49.010;12.120;2022-09-30T00:01:30;96996.69;;;12.44;100.00
17635;BME280;8936;49.010;12.120;2022-09-30T00:03:58;96998.22;;;12.50;100.00
17635;BME280;8936;49.010;12.120;2022-09-30T00:06:25;96996.72;;;12.58;100.00
17635;BME280;8936;49.010;12.120;2022-09-30T00:08:52;96990.88;;;12.56;100.00
17635;BME280;8936;49.010;12.120;2022-09-30T00:11:19;96992.53;;;12.38;100.00
17635;BME280;8936;49.010;12.120;2022-09-30T00:13:47;96989.63;;;12.21;100.00
17635;BME280;8936;49.010;12.120;2022-09-30T00:16:14;96985.47;;;12.15;100.00
17635;BME280;8936;49.010;12.120;2022-09-30T00:18:42;96992.91;;;12.18;100.00
17635;BME280;8936;49.010;12.120;2022-09-30T00:21:10;96990.03;;;12.14;100.00
17635;BME280;8936;49.010;12.120;2022-09-30T00:23:38;96995.69;;;12.13;100.00
17635;BME280;8936;49.010;12.120;2022-09-30T00:26:05;97004.25;;;12.28;100.00
17635;BME280;8936;49.010;12.120;2022-09-30T00:28:32;97004.34;;;12.37;100.00
17635;BME280;8936;49.010;12.120;2022-09-30T00:30:59;96994.00;;;12.44;100.00
17635;BME280;8936;49.010;12.120;2022-09-30T00:33:26;96995.41;;;12.41;100.00
17635;BME280;8936;49.010;12.120;2022-09-30T00:35:52;97006.84;;;12.47;100.00
17635;BME280;8936;49.010;12.120;2022-09-30T00:38:20;96999.88;;;12.46;100.00
17635;BME280;8936;49.010;12.120;2022-09-30T00:40:46;96999.38;;;12.44;100.00
17635;BME280;8936;49.010;12.120;2022-09-30T00:43:14;96996.69;;;12.44;100.00
17635;BME280;8936;49.010;12.120;2022-09-30T00:45:41;97002.63;;;12.41;100.00
17635;BME280;8936;49.010;12.120;2022-09-30T00:48:13;96994.44;;;12.37;100.00
17635;BME280;8936;49.010;12.120;2022-09-30T00:50:42;96996.09;;;12.33;100.00
17635;BME280;8936;49.010;12.120;2022-09-30T00:53:11;97006.44;;;12.40;100.00
17635;BME280;8936;49.010;12.120;2022-09-30T00:55:43;97007.91;;;12.46;100.00
17635;BME280;8936;49.010;12.120;2022-09-30T00:58:10;97013.97;;;12.52;100.00
17635;BME280;8936;49.010;12.120;2022-09-30T01:00:38;97013.38;;;12.55;100.00
17635;BME280;8936;49.010;12.120;2022-09-30T01:03:04;97011.28;;;12.52;100.00
17635;BME280;8936;49.010;12.120;2022-09-30T01:05:31;97008.00;;;12.55;100.00
17635;BME280;8936;49.010;12.120;2022-09-30T01:07:58;97010.69;;;12.55;100.00
17635;BME280;8936;49.010;12.120;2022-09-30T01:10:26;97009.91;;;12.54;100.00
17635;BME280;8936;49.010;12.120;2022-09-30T01:12:54;97015.56;;;12.53;100.00
17635;BME280;8936;49.010;12.120;2022-09-30T01:15:22;97018.03;;;12.49;100.00
17635;BME280;8936;49.010;12.120;2022-09-30T01:17:52;97025.66;;;12.42;100.00
17635;BME280;8936;49.010;12.120;2022-09-30T01:20:31;97016.03;;;12.41;100.00
17635;BME280;8936;49.010;12.120;2022-09-30T01:23:09;97018.09;;;12.44;100.00
17635;BME280;8936;49.010;12.120;2022-09-30T01:25:50;97026.06;;;12.49;100.00
17635;BME280;8936;49.010;12.120;2022-09-30T01:31:08;97031.44;;;12.49;100.00
17635;BME280;8936;49.010;12.120;2022-09-30T01:33:41;97037.78;;;12.53;100.00
17635;BME280;8936;49.010;12.120;2022-09-30T01:36:17;97039.34;;;12.54;100.00
17635;BME280;8936;49.010;12.120;2022-09-30T01:38:49;97041.53;;;12.52;100.00
17635;BME280;8936;49.010;12.120;2022-09-30T01:41:20;97032.44;;;12.53;100.00
17635;BME280;8936;49.010;12.120;2022-09-30T01:43:51;97040.47;;;12.53;100.00
17635;BME280;8936;49.010;12.120;2022-09-30T01:46:25;97031.31;;;12.54;100.00
17635;BME280;8936;49.010;12.120;2022-09-30T01:48:56;97042.13;;;12.49;100.00
17635;BME280;8936;49.010;12.120;2022-09-30T01:51:26;97030.41;;;12.45;100.00
17635;BME280;8936;49.010;12.120;2022-09-30T01:53:56;97032.50;;;12.48;100.00
17635;BME280;8936;49.010;12.120;2022-09-30T01:56:26;97034.75;;;12.41;100.00
17635;BME280;8936;49.010;12.120;2022-09-30T01:58:55;97046.06;;;12.38;100.00
17635;BME280;8936;49.010;12.120;2022-09-30T02:01:26;97047.44;;;12.22;100.00
17635;BME280;8936;49.010;12.120;2022-09-30T02:03:56;97056.78;;;12.24;100.00
17635;BME280;8936;49.010;12.120;2022-09-30T02:06:24;97060.53;;;12.23;100.00
17635;BME280;8936;49.010;12.120;2022-09-30T02:08:52;97057.53;;;12.11;100.00
17635;BME280;8936;49.010;12.120;2022-09-30T02:11:22;97063.34;;;12.13;100.00
17635;BME280;8936;49.010;12.120;2022-09-30T02:13:50;97066.56;;;12.15;100.00
17635;BME280;8936;49.010;12.120;2022-09-30T02:16:19;97056.81;;;12.06;100.00
17635;BME280;8936;49.010;12.120;2022-09-30T02:18:50;97061.94;;;12.02;100.00
17635;BME280;8936;49.010;12.120;2022-09-30T02:21:19;97055.22;;;12.05;100.00
17635;BME280;8936;49.010;12.120;2022-09-30T02:23:49;97065.25;;;12.13;100.00
17635;BME280;8936;49.010;12.120;2022-09-30T02:26:19;97064.25;;;12.09;100.00
17635;BME280;8936;49.010;12.120;2022-09-30T02:28:48;97058.41;;;12.07;100.00
17635;BME280;8936;49.010;12.120;2022-09-30T02:31:16;97060.72;;;11.95;100.00
17635;BME280;8936;49.010;12.120;2022-09-30T02:33:44;97057.66;;;11.87;100.00
17635;BME280;8936;49.010;12.120;2022-09-30T02:36:14;97063.72;;;11.74;100.00
17635;BME280;8936;49.010;12.120;2022-09-30T02:38:44;97070.78;;;11.65;100.00
17635;BME280;8936;49.010;12.120;2022-09-30T02:41:14;97058.84;;;11.58;100.00
17635;BME280;8936;49.010;12.120;2022-09-30T02:43:43;97071.38;;;11.62;100.00
17635;BME280;8936;49.010;12.120;2022-09-30T02:46:13;97074.28;;;11.84;100.00
17635;BME280;8936;49.010;12.120;2022-09-30T02:48:45;97071.72;;;11.93;100.00
17635;BME280;8936;49.010;12.120;2022-09-30T02:51:17;97074.91;;;11.95;100.00
17635;BME280;8936;49.010;12.120;2022-09-30T02:53:48;97062.13;;;11.73;100.00
17635;BME280;8936;49.010;12.120;2022-09-30T02:56:18;97060.25;;;11.74;100.00
17635;BME280;8936;49.010;12.120;2022-09-30T02:58:48;97057.06;;;11.53;100.00
17635;BME280;8936;49.010;12.120;2022-09-30T03:01:15;97051.47;;;11.68;100.00
17635;BME280;8936;49.010;12.120;2022-09-30T03:03:43;97053.00;;;11.56;100.00
17635;BME280;8936;49.010;12.120;2022-09-30T03:06:11;97052.28;;;11.50;100.00
17635;BME280;8936;49.010;12.120;2022-09-30T03:08:39;97045.34;;;11.30;100.00
17635;BME280;8936;49.010;12.120;2022-09-30T03:11:06;97062.94;;;11.13;100.00
17635;BME280;8936;49.010;12.120;2022-09-30T03:16:15;97064.00;;;11.54;100.00
17635;BME280;8936;49.010;12.120;2022-09-30T03:18:48;97072.59;;;11.70;100.00
17635;BME280;8936;49.010;12.120;2022-09-30T03:21:27;97074.88;;;11.81;100.00
17635;BME280;8936;49.010;12.120;2022-09-30T03:26:42;97078.69;;;11.94;100.00
17635;BME280;8936;49.010;12.120;2022-09-30T03:29:16;97074.53;;;12.02;100.00
17635;BME280;8936;49.010;12.120;2022-09-30T03:31:47;97068.41;;;11.82;100.00
17635;BME280;8936;49.010;12.120;2022-09-30T03:34:18;97075.22;;;11.75;100.00
17635;BME280;8936;49.010;12.120;2022-09-30T03:36:49;97068.78;;;11.57;100.00
17635;BME280;8936;49.010;12.120;2022-09-30T03:39:21;97076.28;;;11.55;100.00
17635;BME280;8936;49.010;12.120;2022-09-30T03:41:52;97075.63;;;11.63;100.00
17635;BME280;8936;49.010;12.120;2022-09-30T03:44:20;97074.19;;;11.52;100.00
17635;BME280;8936;49.010;12.120;2022-09-30T03:46:49;97084.81;;;11.57;100.00
17635;BME280;8936;49.010;12.120;2022-09-30T03:49:18;97087.22;;;11.77;100.00
17635;BME280;8936;49.010;12.120;2022-09-30T03:51:46;97091.63;;;11.87;100.00
17635;BME280;8936;49.010;12.120;2022-09-30T03:54:13;97096.09;;;11.91;100.00
17635;BME280;8936;49.010;12.120;2022-09-30T03:56:40;97095.69;;;11.61;100.00
17635;BME280;8936;49.010;12.120;2022-09-30T03:59:10;97095.91;;;11.46;100.00
17635;BME280;8936;49.010;12.120;2022-09-30T04:01:37;97108.41;;;11.31;100.00
17635;BME280;8936;49.010;12.120;2022-09-30T04:04:04;97114.09;;;11.25;100.00
17635;BME280;8936;49.010;12.120;2022-09-30T04:06:30;97119.25;;;11.40;100.00
17635;BME280;8936;49.010;12.120;2022-09-30T04:08:57;97117.41;;;11.59;100.00
17635;BME280;8936;49.010;12.120;2022-09-30T04:11:23;97138.00;;;11.59;100.00
17635;BME280;8936;49.010;12.120;2022-09-30T04:13:50;97131.13;;;11.53;100.00
17635;BME280;8936;49.010;12.120;2022-09-30T04:16:17;97130.72;;;11.22;100.00
17635;BME280;8936;49.010;12.120;2022-09-30T04:18:44;97117.81;;;11.05;100.00
17635;BME280;8936;49.010;12.120;2022-09-30T04:21:11;97124.56;;;11.21;100.00
17635;BME280;8936;49.010;12.120;2022-09-30T04:23:38;97137.84;;;11.26;100.00
17635;BME280;8936;49.010;12.120;2022-09-30T04:26:05;97132.84;;;11.44;100.00
17635;BME280;8936;49.010;12.120;2022-09-30T04:28:32;97128.59;;;11.61;100.00
17635;BME280;8936;49.010;12.120;2022-09-30T04:30:59;97134.28;;;11.78;100.00
17635;BME280;8936;49.010;12.120;2022-09-30T04:33:26;97133.13;;;11.84;100.00
17635;BME280;8936;49.010;12.120;2022-09-30T04:35:53;97139.47;;;11.88;100.00
17635;BME280;8936;49.010;12.120;2022-09-30T04:38:19;97137.81;;;11.93;100.00
17635;BME280;8936;49.010;12.120;2022-09-30T04:40:46;97142.00;;;11.99;100.00
17635;BME280;8936;49.010;12.120;2022-09-30T04:43:13;97130.22;;;12.00;100.00
17635;BME280;8936;49.010;12.120;2022-09-30T04:45:41;97133.97;;;11.99;100.00
17635;BME280;8936;49.010;12.120;2022-09-30T04:48:08;97131.66;;;11.92;100.00
17635;BME280;8936;49.010;12.120;2022-09-30T04:50:35;97134.66;;;11.90;100.00
17635;BME280;8936;49.010;12.120;2022-09-30T04:53:02;97148.03;;;11.90;100.00
17635;BME280;8936;49.010;12.120;2022-09-30T04:55:28;97149.75;;;11.81;100.00
17635;BME280;8936;49.010;12.120;2022-09-30T04:57:55;97144.72;;;11.56;100.00
17635;BME280;8936;49.010;12.120;2022-09-30T05:00:21;97145.88;;;11.50;100.00
17635;BME280;8936;49.010;12.120;2022-09-30T05:02:49;97154.91;;;11.54;100.00
17635;BME280;8936;49.010;12.120;2022-09-30T05:05:15;97148.84;;;11.67;100.00
17635;BME280;8936;49.010;12.120;2022-09-30T05:07:43;97148.84;;;11.67;100.00
17635;BME280;8936;49.010;12.120;2022-09-30T05:10:09;97145.16;;;11.63;100.00
17635;BME280;8936;49.010;12.120;2022-09-30T05:12:36;97146.25;;;11.62;100.00
17635;BME280;8936;49.010;12.120;2022-09-30T05:15:03;97155.88;;;11.63;100.00
17635;BME280;8936;49.010;12.120;2022-09-30T05:17:29;97159.00;;;11.70;100.00
17635;BME280;8936;49.010;12.120;2022-09-30T05:19:55;97157.91;;;11.71;100.00
17635;BME280;8936;49.010;12.120;2022-09-30T05:22:22;97171.38;;;11.61;100.00
17635;BME280;8936;49.010;12.120;2022-09-30T05:24:50;97172.97;;;11.62;100.00
17635;BME280;8936;49.010;12.120;2022-09-30T05:27:17;97178.41;;;11.57;100.00
17635;BME280;8936;49.010;12.120;2022-09-30T05:29:43;97188.69;;;11.45;100.00
17635;BME280;8936;49.010;12.120;2022-09-30T05:32:10;97190.19;;;11.32;100.00
17635;BME280;8936;49.010;12.120;2022-09-30T05:34:37;97199.16;;;11.18;100.00
17635;BME280;8936;49.010;12.120;2022-09-30T05:37:03;97206.03;;;11.24;100.00
17635;BME280;8936;49.010;12.120;2022-09-30T05:39:30;97216.22;;;10.98;100.00
17635;BME280;8936;49.010;12.120;2022-09-30T05:41:58;97215.09;;;11.28;100.00
17635;BME280;8936;49.010;12.120;2022-09-30T05:44:24;97216.53;;;11.44;100.00
17635;BME280;8936;49.010;12.120;2022-09-30T05:46:50;97225.13;;;11.41;100.00
17635;BME280;8936;49.010;12.120;2022-09-30T05:49:17;97222.69;;;11.45;100.00
17635;BME280;8936;49.010;12.120;2022-09-30T05:51:43;97225.00;;;11.27;100.00
17635;BME280;8936;49.010;12.120;2022-09-30T05:54:10;97225.81;;;10.99;100.00
17635;BME280;8936;49.010;12.120;2022-09-30T05:56:37;97226.56;;;10.76;100.00
17635;BME280;8936;49.010;12.120;2022-09-30T05:59:05;97233.09;;;11.17;100.00
17635;BME280;8936;49.010;12.120;2022-09-30T06:01:32;97224.09;;;11.37;100.00
17635;BME280;8936;49.010;12.120;2022-09-30T06:03:59;97228.75;;;11.50;100.00
17635;BME280;8936;49.010;12.120;2022-09-30T06:06:25;97234.78;;;11.37;100.00
17635;BME280;8936;49.010;12.120;2022-09-30T06:08:51;97243.53;;;11.43;100.00
17635;BME280;8936;49.010;12.120;2022-09-30T06:11:19;97239.09;;;11.33;100.00
17635;BME280;8936;49.010;12.120;2022-09-30T06:13:47;97245.00;;;11.30;100.00
17635;BME280;8936;49.010;12.120;2022-09-30T06:16:15;97253.44;;;11.42;100.00
17635;BME280;8936;49.010;12.120;2022-09-30T06:18:42;97252.81;;;11.50;100.00
17635;BME280;8936;49.010;12.120;2022-09-30T06:21:09;97255.50;;;11.50;100.00
17635;BME280;8936;49.010;12.120;2022-09-30T06:23:36;97255.75;;;11.25;100.00
17635;BME280;8936;49.010;12.120;2022-09-30T06:26:04;97251.41;;;10.76;100.00
17635;BME280;8936;49.010;12.120;2022-09-30T06:28:30;97259.56;;;10.56;100.00
17635;BME280;8936;49.010;12.120;2022-09-30T06:30:59;97260.63;;;10.55;100.00
17635;BME280;8936;49.010;12.120;2022-09-30T06:33:27;97261.22;;;10.81;100.00
17635;BME280;8936;49.010;12.120;2022-09-30T06:35:54;97268.88;;;10.93;100.00
17635;BME280;8936;49.010;12.120;2022-09-30T06:38:20;97273.16;;;10.94;100.00
17635;BME280;8936;49.010;12.120;2022-09-30T06:40:47;97271.53;;;10.93;100.00
17635;BME280;8936;49.010;12.120;2022-09-30T06:43:14;97268.94;;;10.88;100.00
17635;BME280;8936;49.010;12.120;2022-09-30T06:45:40;97278.50;;;10.94;100.00
17635;BME280;8936;49.010;12.120;2022-09-30T06:48:08;97282.91;;;10.74;100.00
17635;BME280;8936;49.010;12.120;2022-09-30T06:50:36;97282.69;;;10.32;100.00
17635;BME280;8936;49.010;12.120;2022-09-30T06:53:03;97282.13;;;10.35;100.00
17635;BME280;8936;49.010;12.120;2022-09-30T06:55:30;97280.81;;;10.71;100.00
17635;BME280;8936;49.010;12.120;2022-09-30T06:57:57;97278.66;;;10.73;100.00
17635;BME280;8936;49.010;12.120;2022-09-30T07:00:24;97289.53;;;10.82;100.00
17635;BME280;8936;49.010;12.120;2022-09-30T07:02:52;97282.72;;;11.00;100.00
17635;BME280;8936;49.010;12.120;2022-09-30T07:05:19;97279.78;;;10.96;100.00
17635;BME280;8936;49.010;12.120;2022-09-30T07:07:46;97295.41;;;10.84;100.00
17635;BME280;8936;49.010;12.120;2022-09-30T07:10:13;97301.16;;;11.01;100.00
17635;BME280;8936;49.010;12.120;2022-09-30T07:12:40;97293.72;;;10.93;100.00
17635;BME280;8936;49.010;12.120;2022-09-30T07:15:07;97303.03;;;11.01;100.00
17635;BME280;8936;49.010;12.120;2022-09-30T07:17:33;97304.72;;;10.87;100.00
17635;BME280;8936;49.010;12.120;2022-09-30T07:20:00;97300.09;;;10.97;100.00
17635;BME280;8936;49.010;12.120;2022-09-30T07:22:26;97302.78;;;11.26;100.00
17635;BME280;8936;49.010;12.120;2022-09-30T07:24:55;97303.72;;;11.40;100.00
17635;BME280;8936;49.010;12.120;2022-09-30T07:27:22;97311.25;;;11.62;100.00
17635;BME280;8936;49.010;12.120;2022-09-30T07:29:49;97311.66;;;11.50;100.00
17635;BME280;8936;49.010;12.120;2022-09-30T07:32:16;97311.75;;;11.64;100.00
17635;BME280;8936;49.010;12.120;2022-09-30T07:34:43;97315.06;;;11.84;100.00
17635;BME280;8936;49.010;12.120;2022-09-30T07:37:10;97314.31;;;11.79;100.00
17635;BME280;8936;49.010;12.120;2022-09-30T07:39:38;97321.53;;;11.78;100.00
17635;BME280;8936;49.010;12.120;2022-09-30T07:42:06;97320.91;;;11.58;100.00
17635;BME280;8936;49.010;12.120;2022-09-30T07:44:32;97322.50;;;11.35;100.00
17635;BME280;8936;49.010;12.120;2022-09-30T07:47:01;97326.94;;;11.16;100.00
17635;BME280;8936;49.010;12.120;2022-09-30T07:49:27;97331.78;;;11.14;100.00
17635;BME280;8936;49.010;12.120;2022-09-30T07:51:56;97342.75;;;11.41;100.00
17635;BME280;8936;49.010;12.120;2022-09-30T07:54:23;97341.41;;;11.67;100.00
17635;BME280;8936;49.010;12.120;2022-09-30T07:56:50;97344.72;;;11.30;100.00
17635;BME280;8936;49.010;12.120;2022-09-30T07:59:18;97347.56;;;11.10;100.00
17635;BME280;8936;49.010;12.120;2022-09-30T08:01:45;97344.84;;;11.15;100.00
17635;BME280;8936;49.010;12.120;2022-09-30T08:04:12;97343.19;;;11.48;100.00
17635;BME280;8936;49.010;12.120;2022-09-30T08:06:40;97355.47;;;11.54;100.00
17635;BME280;8936;49.010;12.120;2022-09-30T08:09:07;97369.09;;;11.24;100.00
17635;BME280;8936;49.010;12.120;2022-09-30T08:11:34;97367.09;;;11.06;100.00
17635;BME280;8936;49.010;12.120;2022-09-30T08:14:02;97363.25;;;10.83;100.00
17635;BME280;8936;49.010;12.120;2022-09-30T08:16:30;97371.84;;;10.75;100.00
17635;BME280;8936;49.010;12.120;2022-09-30T08:18:57;97367.88;;;10.72;100.00
17635;BME280;8936;49.010;12.120;2022-09-30T08:21:24;97365.75;;;10.69;100.00
17635;BME280;8936;49.010;12.120;2022-09-30T08:23:51;97375.16;;;10.57;100.00
17635;BME280;8936;49.010;12.120;2022-09-30T08:26:17;97363.66;;;10.61;100.00
17635;BME280;8936;49.010;12.120;2022-09-30T08:28:44;97373.34;;;10.91;100.00
17635;BME280;8936;49.010;12.120;2022-09-30T08:31:12;97369.63;;;11.21;100.00
17635;BME280;8936;49.010;12.120;2022-09-30T08:33:40;97367.78;;;11.50;100.00
17635;BME280;8936;49.010;12.120;2022-09-30T08:36:08;97372.94;;;11.75;100.00
17635;BME280;8936;49.010;12.120;2022-09-30T08:38:35;97371.16;;;11.89;100.00
17635;BME280;8936;49.010;12.120;2022-09-30T08:41:04;97374.91;;;11.88;100.00
17635;BME280;8936;49.010;12.120;2022-09-30T08:43:35;97377.72;;;12.02;100.00
17635;BME280;8936;49.010;12.120;2022-09-30T08:46:06;97374.72;;;12.09;100.00
17635;BME280;8936;49.010;12.120;2022-09-30T08:48:43;97378.63;;;12.16;100.00
17635;BME280;8936;49.010;12.120;2022-09-30T08:51:16;97381.78;;;12.00;100.00
17635;BME280;8936;49.010;12.120;2022-09-30T08:53:48;97389.44;;;11.54;100.00
17635;BME280;8936;49.010;12.120;2022-09-30T08:56:17;97382.84;;;11.07;100.00
17635;BME280;8936;49.010;12.120;2022-09-30T08:58:44;97387.47;;;10.97;100.00
17635;BME280;8936;49.010;12.120;2022-09-30T09:01:14;97390.94;;;10.97;100.00
17635;BME280;8936;49.010;12.120;2022-09-30T09:03:43;97391.06;;;11.16;100.00
17635;BME280;8936;49.010;12.120;2022-09-30T09:06:15;97396.53;;;11.34;100.00
17635;BME280;8936;49.010;12.120;2022-09-30T09:08:48;97393.91;;;11.58;100.00
17635;BME280;8936;49.010;12.120;2022-09-30T09:11:19;97389.72;;;11.81;100.00
17635;BME280;8936;49.010;12.120;2022-09-30T09:13:49;97393.28;;;11.71;100.00
17635;BME280;8936;49.010;12.120;2022-09-30T09:16:20;97399.13;;;11.45;100.00
17635;BME280;8936;49.010;12.120;2022-09-30T09:18:51;97393.19;;;11.19;100.00
17635;BME280;8936;49.010;12.120;2022-09-30T09:21:21;97400.25;;;11.05;100.00
17635;BME280;8936;49.010;12.120;2022-09-30T09:23:47;97392.69;;;11.17;100.00
17635;BME280;8936;49.010;12.120;2022-09-30T09:26:14;97388.75;;;11.38;100.00
17635;BME280;8936;49.010;12.120;2022-09-30T09:28:43;97395.59;;;11.49;100.00
17635;BME280;8936;49.010;12.120;2022-09-30T09:31:11;97399.03;;;11.55;100.00
17635;BME280;8936;49.010;12.120;2022-09-30T09:33:41;97400.63;;;11.56;100.00
17635;BME280;8936;49.010;12.120;2022-09-30T09:36:13;97400.31;;;11.62;100.00
17635;BME280;8936;49.010;12.120;2022-09-30T09:38:53;97398.59;;;11.76;100.00
17635;BME280;8936;49.010;12.120;2022-09-30T09:41:26;97397.03;;;11.70;100.00
17635;BME280;8936;49.010;12.120;2022-09-30T09:43:56;97398.38;;;11.68;100.00
17635;BME280;8936;49.010;12.120;2022-09-30T09:46:25;97400.19;;;11.77;100.00
17635;BME280;8936;49.010;12.120;2022-09-30T09:49:04;97396.50;;;11.68;100.00
17635;BME280;8936;49.010;12.120;2022-09-30T09:51:43;97396.63;;;11.87;100.00
17635;BME280;8936;49.010;12.120;2022-09-30T09:54:12;97405.78;;;12.05;100.00
17635;BME280;8936;49.010;12.120;2022-09-30T09:56:40;97401.66;;;11.88;100.00
17635;BME280;8936;49.010;12.120;2022-09-30T09:59:08;97407.03;;;11.88;100.00
17635;BME280;8936;49.010;12.120;2022-09-30T10:01:35;97410.47;;;11.94;100.00
17635;BME280;8936;49.010;12.120;2022-09-30T10:04:06;97410.53;;;12.13;100.00
17635;BME280;8936;49.010;12.120;2022-09-30T10:06:44;97409.81;;;12.26;100.00
17635;BME280;8936;49.010;12.120;2022-09-30T10:12:01;97415.66;;;12.33;100.00
17635;BME280;8936;49.010;12.120;2022-09-30T10:14:47;97408.63;;;12.37;100.00
17635;BME280;8936;49.010;12.120;2022-09-30T10:17:17;97414.66;;;12.48;100.00
17635;BME280;8936;49.010;12.120;2022-09-30T10:19:46;97419.16;;;12.52;100.00
17635;BME280;8936;49.010;12.120;2022-09-30T10:22:22;97420.69;;;12.58;100.00
17635;BME280;8936;49.010;12.120;2022-09-30T10:24:50;97413.03;;;12.70;100.00
17635;BME280;8936;49.010;12.120;2022-09-30T10:27:26;97419.41;;;12.74;100.00
17635;BME280;8936;49.010;12.120;2022-09-30T10:29:53;97423.16;;;12.73;100.00
17635;BME280;8936;49.010;12.120;2022-09-30T10:32:19;97420.88;;;12.85;100.00
17635;BME280;8936;49.010;12.120;2022-09-30T10:34:46;97422.47;;;12.86;100.00
17635;BME280;8936;49.010;12.120;2022-09-30T10:37:22;97428.25;;;12.75;100.00
17635;BME280;8936;49.010;12.120;2022-09-30T10:39:51;97426.91;;;12.96;100.00
17635;BME280;8936;49.010;12.120;2022-09-30T10:42:21;97424.63;;;13.03;100.00
17635;BME280;8936;49.010;12.120;2022-09-30T10:44:51;97433.59;;;13.17;100.00
17635;BME280;8936;49.010;12.120;2022-09-30T10:47:18;97424.25;;;13.15;100.00
17635;BME280;8936;49.010;12.120;2022-09-30T10:49:47;97429.28;;;13.35;100.00
17635;BME280;8936;49.010;12.120;2022-09-30T10:52:15;97427.31;;;13.40;100.00
17635;BME280;8936;49.010;12.120;2022-09-30T10:54:47;97440.69;;;13.27;100.00
17635;BME280;8936;49.010;12.120;2022-09-30T10:57:15;97436.47;;;13.39;100.00
17635;BME280;8936;49.010;12.120;2022-09-30T10:59:42;97426.72;;;13.43;100.00
17635;BME280;8936;49.010;12.120;2022-09-30T11:02:15;97423.88;;;13.53;100.00
17635;BME280;8936;49.010;12.120;2022-09-30T11:04:46;97427.78;;;13.61;100.00
17635;BME280;8936;49.010;12.120;2022-09-30T11:07:14;97425.22;;;13.70;100.00
17635;BME280;8936;49.010;12.120;2022-09-30T11:09:45;97423.34;;;13.70;100.00
17635;BME280;8936;49.010;12.120;2022-09-30T11:12:17;97420.16;;;13.68;100.00
17635;BME280;8936;49.010;12.120;2022-09-30T11:14:47;97423.63;;;13.69;100.00
17635;BME280;8936;49.010;12.120;2022-09-30T11:17:21;97430.59;;;13.83;100.00
17635;BME280;8936;49.010;12.120;2022-09-30T11:19:50;97427.47;;;13.95;100.00
17635;BME280;8936;49.010;12.120;2022-09-30T11:22:22;97424.28;;;13.93;100.00
17635;BME280;8936;49.010;12.120;2022-09-30T11:24:53;97422.56;;;13.83;100.00
17635;BME280;8936;49.010;12.120;2022-09-30T11:27:26;97426.19;;;13.92;100.00
17635;BME280;8936;49.010;12.120;2022-09-30T11:30:03;97417.44;;;14.00;100.00
17635;BME280;8936;49.010;12.120;2022-09-30T11:32:37;97427.38;;;14.00;100.00
17635;BME280;8936;49.010;12.120;2022-09-30T11:35:10;97427.88;;;14.16;100.00
17635;BME280;8936;49.010;12.120;2022-09-30T11:37:44;97429.88;;;14.24;100.00
17635;BME280;8936;49.010;12.120;2022-09-30T11:40:24;97417.56;;;14.50;100.00
17635;BME280;8936;49.010;12.120;2022-09-30T11:42:57;97411.41;;;14.63;100.00
17635;BME280;8936;49.010;12.120;2022-09-30T11:45:29;97413.00;;;14.50;100.00
17635;BME280;8936;49.010;12.120;2022-09-30T11:50:45;97416.28;;;14.20;100.00
17635;BME280;8936;49.010;12.120;2022-09-30T11:53:18;97411.00;;;14.29;100.00
17635;BME280;8936;49.010;12.120;2022-09-30T11:55:52;97409.03;;;14.34;100.00
17635;BME280;8936;49.010;12.120;2022-09-30T11:58:23;97410.63;;;14.35;100.00
17635;BME280;8936;49.010;12.120;2022-09-30T12:00:52;97415.59;;;14.42;100.00
17635;BME280;8936;49.010;12.120;2022-09-30T12:03:21;97414.50;;;14.56;100.00
17635;BME280;8936;49.010;12.120;2022-09-30T12:05:51;97417.97;;;14.57;100.00
17635;BME280;8936;49.010;12.120;2022-09-30T12:08:21;97421.47;;;14.57;100.00
17635;BME280;8936;49.010;12.120;2022-09-30T12:10:50;97421.16;;;14.59;100.00
17635;BME280;8936;49.010;12.120;2022-09-30T12:13:19;97425.31;;;14.65;100.00
17635;BME280;8936;49.010;12.120;2022-09-30T12:15:49;97421.56;;;14.66;100.00
17635;BME280;8936;49.010;12.120;2022-09-30T12:18:18;97422.63;;;14.51;100.00
17635;BME280;8936;49.010;12.120;2022-09-30T12:20:46;97430.22;;;14.63;100.00
17635;BME280;8936;49.010;12.120;2022-09-30T12:23:15;97431.19;;;14.67;100.00
17635;BME280;8936;49.010;12.120;2022-09-30T12:25:45;97425.19;;;14.84;100.00
17635;BME280;8936;49.010;12.120;2022-09-30T12:28:16;97425.13;;;14.75;100.00
17635;BME280;8936;49.010;12.120;2022-09-30T12:31:06;97421.31;;;14.90;100.00
17635;BME280;8936;49.010;12.120;2022-09-30T12:33:39;97423.03;;;14.72;100.00
17635;BME280;8936;49.010;12.120;2022-09-30T12:36:19;97424.13;;;14.71;100.00
17635;BME280;8936;49.010;12.120;2022-09-30T12:39:06;97422.44;;;14.75;100.00
17635;BME280;8936;49.010;12.120;2022-09-30T12:41:47;97417.31;;;14.87;100.00
17635;BME280;8936;49.010;12.120;2022-09-30T12:44:45;97423.59;;;14.83;100.00
17635;BME280;8936;49.010;12.120;2022-09-30T12:47:24;97414.88;;;14.50;100.00
17635;BME280;8936;49.010;12.120;2022-09-30T12:49:54;97416.38;;;14.70;100.00
17635;BME280;8936;49.010;12.120;2022-09-30T12:52:23;97400.44;;;14.59;100.00
17635;BME280;8936;49.010;12.120;2022-09-30T12:54:51;97402.53;;;14.49;100.00
17635;BME280;8936;49.010;12.120;2022-09-30T12:57:19;97405.03;;;14.73;100.00
17635;BME280;8936;49.010;12.120;2022-09-30T12:59:50;97406.78;;;14.77;100.00
17635;BME280;8936;49.010;12.120;2022-09-30T13:02:26;97412.84;;;15.19;100.00
17635;BME280;8936;49.010;12.120;2022-09-30T13:04:54;97397.19;;;15.21;100.00
17635;BME280;8936;49.010;12.120;2022-09-30T13:07:43;97400.53;;;14.82;100.00
17635;BME280;8936;49.010;12.120;2022-09-30T13:10:30;97401.81;;;14.84;100.00
17635;BME280;8936;49.010;12.120;2022-09-30T13:13:11;97397.84;;;14.82;100.00
17635;BME280;8936;49.010;12.120;2022-09-30T13:15:41;97392.75;;;15.16;100.00